sensor_id;sensor_type;location;lat;lon;timestamp;P1;durP1;ratioP1;P2;durP2;ratioP2
24715;SDS011;12822;50.124;8.678;2023-09-08T00:00:43;9.43;;;5.53;;
24715;SDS011;12822;50.124;8.678;2023-09-08T00:03:09;15.02;;;5.18;;
24715;SDS011;12822;50.124;8.678;2023-09-08T00:05:35;10.40;;;5.65;;
24715;SDS011;12822;50.124;8.678;2023-09-08T00:08:01;8.68;;;5.25;;
24715;SDS011;12822;50.124;8.678;2023-09-08T00:10:27;9.38;;;5.47;;
24715;SDS011;12822;50.124;8.678;2023-09-08T00:12:53;12.07;;;5.15;;
24715;SDS011;12822;50.124;8.678;2023-09-08T00:15:19;10.38;;;5.55;;
24715;SDS011;12822;50.124;8.678;2023-09-08T00:17:45;8.45;;;5.22;;
24715;SDS011;12822;50.124;8.678;2023-09-08T00:20:12;11.25;;;5.68;;
24715;SDS011;12822;50.124;8.678;2023-09-08T00:22:38;13.90;;;5.80;;
24715;SDS011;12822;50.124;8.678;2023-09-08T00:25:05;8.90;;;4.90;;
24715;SDS011;12822;50.124;8.678;2023-09-08T00:27:31;7.07;;;5.35;;
24715;SDS011;12822;50.124;8.678;2023-09-08T00:29:57;9.13;;;5.38;;
24715;SDS011;12822;50.124;8.678;2023-09-08T00:32:23;8.43;;;4.95;;
24715;SDS011;12822;50.124;8.678;2023-09-08T00:34:49;8.60;;;5.38;;
24715;SDS011;12822;50.124;8.678;2023-09-08T00:37:15;7.47;;;4.85;;
24715;SDS011;12822;50.124;8.678;2023-09-08T00:39:41;7.70;;;5.55;;
24715;SDS011;12822;50.124;8.678;2023-09-08T00:42:07;10.45;;;5.35;;
24715;SDS011;12822;50.124;8.678;2023-09-08T00:44:33;13.45;;;5.72;;
24715;SDS011;12822;50.124;8.678;2023-09-08T00:46:59;7.82;;;5.10;;
24715;SDS011;12822;50.124;8.678;2023-09-08T00:49:25;9.88;;;5.53;;
24715;SDS011;12822;50.124;8.678;2023-09-08T00:51:51;8.55;;;5.20;;
24715;SDS011;12822;50.124;8.678;2023-09-08T00:54:17;8.82;;;5.63;;
24715;SDS011;12822;50.124;8.678;2023-09-08T00:56:43;8.77;;;5.68;;
24715;SDS011;12822;50.124;8.678;2023-09-08T00:59:10;8.05;;;5.10;;
24715;SDS011;12822;50.124;8.678;2023-09-08T01:01:36;10.43;;;5.47;;
24715;SDS011;12822;50.124;8.678;2023-09-08T01:04:02;8.32;;;5.75;;
24715;SDS011;12822;50.124;8.678;2023-09-08T01:06:28;11.75;;;6.25;;
24715;SDS011;12822;50.124;8.678;2023-09-08T01:08:54;7.45;;;5.20;;
24715;SDS011;12822;50.124;8.678;2023-09-08T01:11:21;13.15;;;5.68;;
24715;SDS011;12822;50.124;8.678;2023-09-08T01:13:47;12.73;;;7.28;;
24715;SDS011;12822;50.124;8.678;2023-09-08T01:16:13;10.40;;;6.32;;
24715;SDS011;12822;50.124;8.678;2023-09-08T01:18:39;8.20;;;5.63;;
24715;SDS011;12822;50.124;8.678;2023-09-08T01:21:13;9.30;;;5.80;;
24715;SDS011;12822;50.124;8.678;2023-09-08T01:24:11;8.50;;;5.88;;
24715;SDS011;12822;50.124;8.678;2023-09-08T01:26:40;8.73;;;5.22;;
24715;SDS011;12822;50.124;8.678;2023-09-08T01:29:07;8.65;;;5.53;;
24715;SDS011;12822;50.124;8.678;2023-09-08T01:31:33;8.07;;;5.60;;
24715;SDS011;12822;50.124;8.678;2023-09-08T01:34:00;6.82;;;5.25;;
24715;SDS011;12822;50.124;8.678;2023-09-08T01:36:31;7.93;;;5.82;;
24715;SDS011;12822;50.124;8.678;2023-09-08T01:38:57;7.00;;;5.40;;
24715;SDS011;12822;50.124;8.678;2023-09-08T01:41:23;8.60;;;6.00;;
24715;SDS011;12822;50.124;8.678;2023-09-08T01:43:49;10.63;;;5.90;;
24715;SDS011;12822;50.124;8.678;2023-09-08T01:46:15;12.73;;;5.90;;
24715;SDS011;12822;50.124;8.678;2023-09-08T01:48:41;9.95;;;6.07;;
24715;SDS011;12822;50.124;8.678;2023-09-08T01:51:07;10.13;;;6.20;;
24715;SDS011;12822;50.124;8.678;2023-09-08T01:53:33;8.15;;;6.30;;
24715;SDS011;12822;50.124;8.678;2023-09-08T01:55:59;9.73;;;5.70;;
24715;SDS011;12822;50.124;8.678;2023-09-08T01:58:25;10.65;;;6.13;;
24715;SDS011;12822;50.124;8.678;2023-09-08T02:00:51;10.02;;;6.28;;
24715;SDS011;12822;50.124;8.678;2023-09-08T02:03:17;9.35;;;5.80;;
24715;SDS011;12822;50.124;8.678;2023-09-08T02:05:44;8.07;;;6.10;;
24715;SDS011;12822;50.124;8.678;2023-09-08T02:08:10;7.47;;;5.53;;
24715;SDS011;12822;50.124;8.678;2023-09-08T02:10:39;10.25;;;6.18;;
24715;SDS011;12822;50.124;8.678;2023-09-08T02:13:05;8.10;;;6.10;;
24715;SDS011;12822;50.124;8.678;2023-09-08T02:15:31;10.10;;;6.18;;
24715;SDS011;12822;50.124;8.678;2023-09-08T02:18:00;11.98;;;6.38;;
24715;SDS011;12822;50.124;8.678;2023-09-08T02:20:26;10.00;;;6.00;;
24715;SDS011;12822;50.124;8.678;2023-09-08T02:22:53;9.73;;;6.15;;
24715;SDS011;12822;50.124;8.678;2023-09-08T02:25:20;13.02;;;6.00;;
24715;SDS011;12822;50.124;8.678;2023-09-08T02:27:46;9.15;;;5.97;;
24715;SDS011;12822;50.124;8.678;2023-09-08T02:30:12;14.80;;;6.60;;
24715;SDS011;12822;50.124;8.678;2023-09-08T02:32:38;12.80;;;5.90;;
24715;SDS011;12822;50.124;8.678;2023-09-08T02:35:07;10.73;;;5.70;;
24715;SDS011;12822;50.124;8.678;2023-09-08T02:37:33;9.00;;;6.70;;
24715;SDS011;12822;50.124;8.678;2023-09-08T02:39:59;10.52;;;5.78;;
24715;SDS011;12822;50.124;8.678;2023-09-08T02:42:25;10.57;;;6.20;;
24715;SDS011;12822;50.124;8.678;2023-09-08T02:44:51;12.05;;;6.53;;
24715;SDS011;12822;50.124;8.678;2023-09-08T02:47:17;8.80;;;5.70;;
24715;SDS011;12822;50.124;8.678;2023-09-08T02:49:43;8.27;;;5.85;;
24715;SDS011;12822;50.124;8.678;2023-09-08T02:52:09;8.15;;;6.07;;
24715;SDS011;12822;50.124;8.678;2023-09-08T02:54:35;12.05;;;6.50;;
24715;SDS011;12822;50.124;8.678;2023-09-08T02:57:01;9.18;;;5.72;;
24715;SDS011;12822;50.124;8.678;2023-09-08T02:59:27;8.70;;;6.05;;
24715;SDS011;12822;50.124;8.678;2023-09-08T03:01:53;8.27;;;5.55;;
24715;SDS011;12822;50.124;8.678;2023-09-08T03:04:19;8.98;;;5.78;;
24715;SDS011;12822;50.124;8.678;2023-09-08T03:06:45;7.55;;;6.40;;
24715;SDS011;12822;50.124;8.678;2023-09-08T03:09:11;9.02;;;5.45;;
24715;SDS011;12822;50.124;8.678;2023-09-08T03:11:37;8.85;;;5.93;;
24715;SDS011;12822;50.124;8.678;2023-09-08T03:14:03;12.23;;;5.57;;
24715;SDS011;12822;50.124;8.678;2023-09-08T03:16:29;10.75;;;5.82;;
24715;SDS011;12822;50.124;8.678;2023-09-08T03:18:55;6.55;;;5.45;;
24715;SDS011;12822;50.124;8.678;2023-09-08T03:21:21;7.20;;;5.57;;
24715;SDS011;12822;50.124;8.678;2023-09-08T03:23:47;7.53;;;5.32;;
24715;SDS011;12822;50.124;8.678;2023-09-08T03:26:13;6.57;;;5.07;;
24715;SDS011;12822;50.124;8.678;2023-09-08T03:28:41;7.60;;;5.85;;
24715;SDS011;12822;50.124;8.678;2023-09-08T03:31:07;8.80;;;5.45;;
24715;SDS011;12822;50.124;8.678;2023-09-08T03:33:33;9.43;;;5.40;;
24715;SDS011;12822;50.124;8.678;2023-09-08T03:36:00;7.40;;;5.13;;
24715;SDS011;12822;50.124;8.678;2023-09-08T03:38:26;14.45;;;5.32;;
24715;SDS011;12822;50.124;8.678;2023-09-08T03:40:52;10.90;;;5.25;;
24715;SDS011;12822;50.124;8.678;2023-09-08T03:43:18;9.25;;;5.57;;
24715;SDS011;12822;50.124;8.678;2023-09-08T03:45:44;8.23;;;5.18;;
24715;SDS011;12822;50.124;8.678;2023-09-08T03:48:10;12.98;;;5.80;;
24715;SDS011;12822;50.124;8.678;2023-09-08T03:50:36;9.00;;;5.10;;
24715;SDS011;12822;50.124;8.678;2023-09-08T03:53:02;13.85;;;5.47;;
24715;SDS011;12822;50.124;8.678;2023-09-08T03:55:28;8.70;;;5.85;;
24715;SDS011;12822;50.124;8.678;2023-09-08T03:57:54;6.75;;;4.72;;
24715;SDS011;12822;50.124;8.678;2023-09-08T04:00:20;10.30;;;4.90;;
24715;SDS011;12822;50.124;8.678;2023-09-08T04:02:49;14.25;;;6.07;;
24715;SDS011;12822;50.124;8.678;2023-09-08T04:05:16;6.82;;;5.35;;
24715;SDS011;12822;50.124;8.678;2023-09-08T04:07:42;6.70;;;4.85;;
24715;SDS011;12822;50.124;8.678;2023-09-08T04:10:08;7.15;;;5.00;;
24715;SDS011;12822;50.124;8.678;2023-09-08T04:12:34;8.25;;;5.32;;
24715;SDS011;12822;50.124;8.678;2023-09-08T04:15:00;7.93;;;5.57;;
24715;SDS011;12822;50.124;8.678;2023-09-08T04:17:26;11.55;;;6.03;;
24715;SDS011;12822;50.124;8.678;2023-09-08T04:19:52;8.07;;;5.60;;
24715;SDS011;12822;50.124;8.678;2023-09-08T04:22:18;6.78;;;5.10;;
24715;SDS011;12822;50.124;8.678;2023-09-08T04:24:44;5.35;;;4.80;;
24715;SDS011;12822;50.124;8.678;2023-09-08T04:27:10;6.43;;;5.63;;
24715;SDS011;12822;50.124;8.678;2023-09-08T04:29:36;8.35;;;5.20;;
24715;SDS011;12822;50.124;8.678;2023-09-08T04:32:02;11.00;;;5.72;;
24715;SDS011;12822;50.124;8.678;2023-09-08T04:34:35;11.23;;;5.65;;
24715;SDS011;12822;50.124;8.678;2023-09-08T04:37:01;9.25;;;5.40;;
24715;SDS011;12822;50.124;8.678;2023-09-08T04:39:27;9.82;;;5.72;;
24715;SDS011;12822;50.124;8.678;2023-09-08T04:41:53;7.82;;;5.20;;
24715;SDS011;12822;50.124;8.678;2023-09-08T04:44:19;9.00;;;5.55;;
24715;SDS011;12822;50.124;8.678;2023-09-08T04:46:45;5.65;;;4.75;;
24715;SDS011;12822;50.124;8.678;2023-09-08T04:49:11;7.18;;;5.50;;
24715;SDS011;12822;50.124;8.678;2023-09-08T04:51:37;9.65;;;5.70;;
24715;SDS011;12822;50.124;8.678;2023-09-08T04:54:03;10.15;;;4.53;;
24715;SDS011;12822;50.124;8.678;2023-09-08T04:56:29;8.20;;;5.82;;
24715;SDS011;12822;50.124;8.678;2023-09-08T04:58:55;9.70;;;5.38;;
24715;SDS011;12822;50.124;8.678;2023-09-08T05:01:22;8.80;;;5.40;;
24715;SDS011;12822;50.124;8.678;2023-09-08T05:03:48;10.35;;;5.35;;
24715;SDS011;12822;50.124;8.678;2023-09-08T05:06:14;6.70;;;5.00;;
24715;SDS011;12822;50.124;8.678;2023-09-08T05:08:40;9.40;;;5.20;;
24715;SDS011;12822;50.124;8.678;2023-09-08T05:11:06;7.28;;;5.15;;
24715;SDS011;12822;50.124;8.678;2023-09-08T05:13:32;7.68;;;5.60;;
24715;SDS011;12822;50.124;8.678;2023-09-08T05:15:58;6.57;;;5.30;;
24715;SDS011;12822;50.124;8.678;2023-09-08T05:18:28;9.40;;;5.20;;
24715;SDS011;12822;50.124;8.678;2023-09-08T05:20:54;9.07;;;5.38;;
24715;SDS011;12822;50.124;8.678;2023-09-08T05:23:20;10.57;;;5.28;;
24715;SDS011;12822;50.124;8.678;2023-09-08T05:25:46;7.18;;;5.60;;
24715;SDS011;12822;50.124;8.678;2023-09-08T05:28:12;10.27;;;5.47;;
24715;SDS011;12822;50.124;8.678;2023-09-08T05:30:38;7.07;;;5.47;;
24715;SDS011;12822;50.124;8.678;2023-09-08T05:33:04;8.80;;;5.47;;
24715;SDS011;12822;50.124;8.678;2023-09-08T05:35:32;10.77;;;5.75;;
24715;SDS011;12822;50.124;8.678;2023-09-08T05:37:58;8.63;;;5.60;;
24715;SDS011;12822;50.124;8.678;2023-09-08T05:40:23;8.82;;;5.22;;
24715;SDS011;12822;50.124;8.678;2023-09-08T05:42:51;7.95;;;5.57;;
24715;SDS011;12822;50.124;8.678;2023-09-08T05:45:18;9.23;;;4.97;;
24715;SDS011;12822;50.124;8.678;2023-09-08T05:47:44;8.15;;;5.95;;
24715;SDS011;12822;50.124;8.678;2023-09-08T05:50:10;6.95;;;5.25;;
24715;SDS011;12822;50.124;8.678;2023-09-08T05:52:36;8.18;;;4.90;;
24715;SDS011;12822;50.124;8.678;2023-09-08T05:55:02;12.32;;;4.88;;
24715;SDS011;12822;50.124;8.678;2023-09-08T05:57:28;6.30;;;5.07;;
24715;SDS011;12822;50.124;8.678;2023-09-08T05:59:54;9.57;;;5.68;;
24715;SDS011;12822;50.124;8.678;2023-09-08T06:02:20;15.73;;;5.90;;
24715;SDS011;12822;50.124;8.678;2023-09-08T06:04:45;11.88;;;5.07;;
24715;SDS011;12822;50.124;8.678;2023-09-08T06:07:11;9.52;;;4.70;;
24715;SDS011;12822;50.124;8.678;2023-09-08T06:09:37;9.80;;;5.05;;
24715;SDS011;12822;50.124;8.678;2023-09-08T06:12:03;9.68;;;4.75;;
24715;SDS011;12822;50.124;8.678;2023-09-08T06:14:30;10.75;;;5.10;;
24715;SDS011;12822;50.124;8.678;2023-09-08T06:16:55;8.43;;;5.10;;
24715;SDS011;12822;50.124;8.678;2023-09-08T06:19:22;9.85;;;4.57;;
24715;SDS011;12822;50.124;8.678;2023-09-08T06:21:48;7.30;;;4.80;;
24715;SDS011;12822;50.124;8.678;2023-09-08T06:24:13;14.05;;;5.40;;
24715;SDS011;12822;50.124;8.678;2023-09-08T06:26:39;8.55;;;4.60;;
24715;SDS011;12822;50.124;8.678;2023-09-08T06:29:07;7.50;;;5.05;;
24715;SDS011;12822;50.124;8.678;2023-09-08T06:31:33;12.10;;;4.85;;
24715;SDS011;12822;50.124;8.678;2023-09-08T06:33:59;8.30;;;4.90;;
24715;SDS011;12822;50.124;8.678;2023-09-08T06:36:25;10.95;;;5.38;;
24715;SDS011;12822;50.124;8.678;2023-09-08T06:38:51;9.05;;;4.63;;
24715;SDS011;12822;50.124;8.678;2023-09-08T06:41:17;8.00;;;4.68;;
24715;SDS011;12822;50.124;8.678;2023-09-08T06:43:44;6.53;;;4.60;;
24715;SDS011;12822;50.124;8.678;2023-09-08T06:46:10;12.38;;;5.30;;
24715;SDS011;12822;50.124;8.678;2023-09-08T06:48:36;10.00;;;5.03;;
24715;SDS011;12822;50.124;8.678;2023-09-08T06:51:02;11.95;;;4.82;;
24715;SDS011;12822;50.124;8.678;2023-09-08T06:53:28;8.55;;;4.82;;
24715;SDS011;12822;50.124;8.678;2023-09-08T06:55:55;6.13;;;4.25;;
24715;SDS011;12822;50.124;8.678;2023-09-08T06:58:21;7.40;;;4.95;;
24715;SDS011;12822;50.124;8.678;2023-09-08T07:00:47;7.25;;;4.57;;
24715;SDS011;12822;50.124;8.678;2023-09-08T07:03:14;13.63;;;5.20;;
24715;SDS011;12822;50.124;8.678;2023-09-08T07:05:40;7.65;;;4.72;;
24715;SDS011;12822;50.124;8.678;2023-09-08T07:08:06;9.25;;;4.53;;
24715;SDS011;12822;50.124;8.678;2023-09-08T07:10:32;9.57;;;5.00;;
24715;SDS011;12822;50.124;8.678;2023-09-08T07:12:58;8.90;;;4.65;;
24715;SDS011;12822;50.124;8.678;2023-09-08T07:15:24;9.10;;;4.45;;
24715;SDS011;12822;50.124;8.678;2023-09-08T07:17:50;10.90;;;4.65;;
24715;SDS011;12822;50.124;8.678;2023-09-08T07:20:16;13.43;;;5.07;;
24715;SDS011;12822;50.124;8.678;2023-09-08T07:22:42;9.20;;;4.88;;
24715;SDS011;12822;50.124;8.678;2023-09-08T07:25:08;7.28;;;4.95;;
24715;SDS011;12822;50.124;8.678;2023-09-08T07:27:34;6.82;;;4.35;;
24715;SDS011;12822;50.124;8.678;2023-09-08T07:30:01;8.93;;;4.50;;
24715;SDS011;12822;50.124;8.678;2023-09-08T07:32:27;7.65;;;4.60;;
24715;SDS011;12822;50.124;8.678;2023-09-08T07:34:53;10.18;;;4.28;;
24715;SDS011;12822;50.124;8.678;2023-09-08T07:37:22;12.63;;;4.78;;
24715;SDS011;12822;50.124;8.678;2023-09-08T07:39:49;8.45;;;4.47;;
24715;SDS011;12822;50.124;8.678;2023-09-08T07:42:15;8.77;;;4.57;;
24715;SDS011;12822;50.124;8.678;2023-09-08T07:44:41;11.43;;;4.45;;
24715;SDS011;12822;50.124;8.678;2023-09-08T07:47:07;9.38;;;4.20;;
24715;SDS011;12822;50.124;8.678;2023-09-08T07:49:33;11.40;;;4.65;;
24715;SDS011;12822;50.124;8.678;2023-09-08T07:52:00;7.25;;;4.50;;
24715;SDS011;12822;50.124;8.678;2023-09-08T07:54:26;7.25;;;4.15;;
24715;SDS011;12822;50.124;8.678;2023-09-08T07:56:52;10.27;;;4.20;;
24715;SDS011;12822;50.124;8.678;2023-09-08T07:59:18;9.60;;;4.60;;
24715;SDS011;12822;50.124;8.678;2023-09-08T08:01:44;8.32;;;3.92;;
24715;SDS011;12822;50.124;8.678;2023-09-08T08:04:10;6.00;;;3.90;;
24715;SDS011;12822;50.124;8.678;2023-09-08T08:06:36;6.68;;;4.30;;
24715;SDS011;12822;50.124;8.678;2023-09-08T08:09:02;6.10;;;3.95;;
24715;SDS011;12822;50.124;8.678;2023-09-08T08:11:29;5.38;;;3.85;;
24715;SDS011;12822;50.124;8.678;2023-09-08T08:13:55;7.60;;;4.10;;
24715;SDS011;12822;50.124;8.678;2023-09-08T08:16:21;8.38;;;4.28;;
24715;SDS011;12822;50.124;8.678;2023-09-08T08:18:48;8.90;;;4.40;;
24715;SDS011;12822;50.124;8.678;2023-09-08T08:21:14;8.00;;;4.20;;
24715;SDS011;12822;50.124;8.678;2023-09-08T08:23:40;10.98;;;4.38;;
24715;SDS011;12822;50.124;8.678;2023-09-08T08:26:06;10.68;;;4.32;;
24715;SDS011;12822;50.124;8.678;2023-09-08T08:28:32;11.55;;;4.30;;
24715;SDS011;12822;50.124;8.678;2023-09-08T08:30:58;7.50;;;4.00;;
24715;SDS011;12822;50.124;8.678;2023-09-08T08:33:24;9.68;;;4.28;;
24715;SDS011;12822;50.124;8.678;2023-09-08T08:35:54;9.40;;;5.03;;
24715;SDS011;12822;50.124;8.678;2023-09-08T08:38:20;12.95;;;4.55;;
24715;SDS011;12822;50.124;8.678;2023-09-08T08:40:46;11.57;;;4.28;;
24715;SDS011;12822;50.124;8.678;2023-09-08T08:43:12;13.75;;;4.70;;
24715;SDS011;12822;50.124;8.678;2023-09-08T08:45:38;13.27;;;4.40;;
24715;SDS011;12822;50.124;8.678;2023-09-08T08:48:05;6.35;;;4.30;;
24715;SDS011;12822;50.124;8.678;2023-09-08T08:50:31;9.35;;;4.63;;
24715;SDS011;12822;50.124;8.678;2023-09-08T08:52:58;7.97;;;4.05;;
24715;SDS011;12822;50.124;8.678;2023-09-08T08:55:25;12.57;;;4.63;;
24715;SDS011;12822;50.124;8.678;2023-09-08T08:57:51;8.52;;;4.65;;
24715;SDS011;12822;50.124;8.678;2023-09-08T09:00:17;13.95;;;4.75;;
24715;SDS011;12822;50.124;8.678;2023-09-08T09:02:43;7.65;;;4.15;;
24715;SDS011;12822;50.124;8.678;2023-09-08T09:05:12;7.20;;;3.90;;
24715;SDS011;12822;50.124;8.678;2023-09-08T09:07:41;10.80;;;4.60;;
24715;SDS011;12822;50.124;8.678;2023-09-08T09:10:08;9.05;;;3.88;;
24715;SDS011;12822;50.124;8.678;2023-09-08T09:12:37;9.50;;;3.85;;
24715;SDS011;12822;50.124;8.678;2023-09-08T09:15:04;6.82;;;4.38;;
24715;SDS011;12822;50.124;8.678;2023-09-08T09:17:32;9.88;;;4.25;;
24715;SDS011;12822;50.124;8.678;2023-09-08T09:22:58;6.70;;;4.03;;
24715;SDS011;12822;50.124;8.678;2023-09-08T09:25:28;10.45;;;4.15;;
24715;SDS011;12822;50.124;8.678;2023-09-08T09:27:58;5.97;;;4.18;;
24715;SDS011;12822;50.124;8.678;2023-09-08T09:30:24;11.05;;;3.55;;
24715;SDS011;12822;50.124;8.678;2023-09-08T09:32:58;8.52;;;3.70;;
24715;SDS011;12822;50.124;8.678;2023-09-08T09:35:46;5.22;;;3.95;;
24715;SDS011;12822;50.124;8.678;2023-09-08T09:38:11;5.93;;;4.00;;
24715;SDS011;12822;50.124;8.678;2023-09-08T09:40:37;9.85;;;3.88;;
24715;SDS011;12822;50.124;8.678;2023-09-08T09:43:04;8.38;;;3.60;;
24715;SDS011;12822;50.124;8.678;2023-09-08T09:45:30;12.05;;;3.75;;
24715;SDS011;12822;50.124;8.678;2023-09-08T09:47:56;7.45;;;3.65;;
24715;SDS011;12822;50.124;8.678;2023-09-08T09:50:29;16.33;;;5.32;;
24715;SDS011;12822;50.124;8.678;2023-09-08T09:52:59;15.40;;;5.55;;
24715;SDS011;12822;50.124;8.678;2023-09-08T09:55:26;24.67;;;7.20;;
24715;SDS011;12822;50.124;8.678;2023-09-08T09:57:55;18.10;;;5.57;;
24715;SDS011;12822;50.124;8.678;2023-09-08T10:00:23;4.63;;;3.30;;
24715;SDS011;12822;50.124;8.678;2023-09-08T10:02:49;18.05;;;5.85;;
24715;SDS011;12822;50.124;8.678;2023-09-08T10:05:16;8.00;;;3.60;;
24715;SDS011;12822;50.124;8.678;2023-09-08T10:07:42;5.75;;;4.22;;
24715;SDS011;12822;50.124;8.678;2023-09-08T10:10:09;7.38;;;3.15;;
24715;SDS011;12822;50.124;8.678;2023-09-08T10:12:35;5.70;;;3.55;;
24715;SDS011;12822;50.124;8.678;2023-09-08T10:15:02;4.05;;;3.25;;
24715;SDS011;12822;50.124;8.678;2023-09-08T10:17:31;9.38;;;3.40;;
24715;SDS011;12822;50.124;8.678;2023-09-08T10:20:00;11.88;;;4.13;;
24715;SDS011;12822;50.124;8.678;2023-09-08T10:22:33;12.77;;;4.45;;
24715;SDS011;12822;50.124;8.678;2023-09-08T10:25:03;7.90;;;3.28;;
24715;SDS011;12822;50.124;8.678;2023-09-08T10:27:30;5.32;;;3.05;;
24715;SDS011;12822;50.124;8.678;2023-09-08T10:29:57;4.85;;;3.08;;
24715;SDS011;12822;50.124;8.678;2023-09-08T10:32:26;4.80;;;3.28;;
24715;SDS011;12822;50.124;8.678;2023-09-08T10:34:52;8.93;;;3.70;;
24715;SDS011;12822;50.124;8.678;2023-09-08T10:37:19;8.25;;;3.22;;
24715;SDS011;12822;50.124;8.678;2023-09-08T10:39:45;5.95;;;3.33;;
24715;SDS011;12822;50.124;8.678;2023-09-08T10:47:13;7.40;;;3.15;;
24715;SDS011;12822;50.124;8.678;2023-09-08T10:49:39;7.28;;;3.47;;
24715;SDS011;12822;50.124;8.678;2023-09-08T10:52:09;5.85;;;2.95;;
24715;SDS011;12822;50.124;8.678;2023-09-08T10:57:01;4.88;;;3.45;;
24715;SDS011;12822;50.124;8.678;2023-09-08T10:59:35;5.07;;;3.15;;
24715;SDS011;12822;50.124;8.678;2023-09-08T11:02:03;4.17;;;3.27;;
24715;SDS011;12822;50.124;8.678;2023-09-08T11:04:29;5.30;;;3.30;;
24715;SDS011;12822;50.124;8.678;2023-09-08T11:06:56;7.10;;;3.47;;
24715;SDS011;12822;50.124;8.678;2023-09-08T11:09:22;8.02;;;3.75;;
24715;SDS011;12822;50.124;8.678;2023-09-08T11:11:48;4.78;;;3.20;;
24715;SDS011;12822;50.124;8.678;2023-09-08T11:14:14;5.75;;;3.60;;
24715;SDS011;12822;50.124;8.678;2023-09-08T11:16:41;6.25;;;3.67;;
24715;SDS011;12822;50.124;8.678;2023-09-08T11:19:07;4.00;;;3.28;;
24715;SDS011;12822;50.124;8.678;2023-09-08T11:21:35;4.70;;;3.40;;
24715;SDS011;12822;50.124;8.678;2023-09-08T11:24:04;6.45;;;3.72;;
24715;SDS011;12822;50.124;8.678;2023-09-08T11:28:56;5.93;;;3.15;;
24715;SDS011;12822;50.124;8.678;2023-09-08T11:31:22;3.78;;;3.03;;
24715;SDS011;12822;50.124;8.678;2023-09-08T11:33:48;5.55;;;3.38;;
24715;SDS011;12822;50.124;8.678;2023-09-08T11:36:14;5.50;;;3.00;;
24715;SDS011;12822;50.124;8.678;2023-09-08T11:38:41;6.45;;;3.35;;
24715;SDS011;12822;50.124;8.678;2023-09-08T11:41:08;6.85;;;3.38;;
24715;SDS011;12822;50.124;8.678;2023-09-08T11:43:34;6.63;;;3.10;;
24715;SDS011;12822;50.124;8.678;2023-09-08T11:46:00;6.22;;;3.40;;
24715;SDS011;12822;50.124;8.678;2023-09-08T11:48:26;11.07;;;3.25;;
24715;SDS011;12822;50.124;8.678;2023-09-08T11:50:53;4.93;;;3.28;;
24715;SDS011;12822;50.124;8.678;2023-09-08T11:53:19;8.13;;;3.08;;
24715;SDS011;12822;50.124;8.678;2023-09-08T11:55:46;4.13;;;3.22;;
24715;SDS011;12822;50.124;8.678;2023-09-08T11:58:12;5.85;;;3.30;;
24715;SDS011;12822;50.124;8.678;2023-09-08T12:00:38;4.88;;;2.90;;
24715;SDS011;12822;50.124;8.678;2023-09-08T12:03:12;7.40;;;3.70;;
24715;SDS011;12822;50.124;8.678;2023-09-08T12:05:39;5.90;;;2.90;;
24715;SDS011;12822;50.124;8.678;2023-09-08T12:08:07;5.40;;;3.00;;
24715;SDS011;12822;50.124;8.678;2023-09-08T12:10:39;4.70;;;3.25;;
24715;SDS011;12822;50.124;8.678;2023-09-08T12:13:06;5.40;;;3.30;;
24715;SDS011;12822;50.124;8.678;2023-09-08T12:15:50;3.80;;;3.30;;
24715;SDS011;12822;50.124;8.678;2023-09-08T12:18:16;7.30;;;3.28;;
24715;SDS011;12822;50.124;8.678;2023-09-08T12:20:43;8.30;;;3.63;;
24715;SDS011;12822;50.124;8.678;2023-09-08T12:23:16;4.93;;;2.90;;
24715;SDS011;12822;50.124;8.678;2023-09-08T12:25:45;7.65;;;3.28;;
24715;SDS011;12822;50.124;8.678;2023-09-08T12:28:11;7.45;;;3.05;;
24715;SDS011;12822;50.124;8.678;2023-09-08T12:30:38;7.43;;;3.08;;
24715;SDS011;12822;50.124;8.678;2023-09-08T12:33:04;5.65;;;3.33;;
24715;SDS011;12822;50.124;8.678;2023-09-08T12:35:30;5.85;;;3.33;;
24715;SDS011;12822;50.124;8.678;2023-09-08T12:38:00;3.70;;;2.63;;
24715;SDS011;12822;50.124;8.678;2023-09-08T12:40:27;6.72;;;2.80;;
24715;SDS011;12822;50.124;8.678;2023-09-08T12:42:53;5.60;;;3.00;;
24715;SDS011;12822;50.124;8.678;2023-09-08T12:45:20;3.95;;;3.08;;
24715;SDS011;12822;50.124;8.678;2023-09-08T12:47:47;7.35;;;3.35;;
24715;SDS011;12822;50.124;8.678;2023-09-08T12:50:13;5.63;;;3.20;;
24715;SDS011;12822;50.124;8.678;2023-09-08T12:52:39;6.70;;;2.90;;
24715;SDS011;12822;50.124;8.678;2023-09-08T12:55:06;6.25;;;2.88;;
24715;SDS011;12822;50.124;8.678;2023-09-08T12:57:32;7.10;;;3.33;;
24715;SDS011;12822;50.124;8.678;2023-09-08T12:59:58;4.50;;;2.97;;
24715;SDS011;12822;50.124;8.678;2023-09-08T13:02:24;7.60;;;2.95;;
24715;SDS011;12822;50.124;8.678;2023-09-08T13:04:51;6.88;;;3.10;;
24715;SDS011;12822;50.124;8.678;2023-09-08T13:07:17;3.33;;;2.90;;
24715;SDS011;12822;50.124;8.678;2023-09-08T13:09:43;7.15;;;3.00;;
24715;SDS011;12822;50.124;8.678;2023-09-08T13:12:09;6.05;;;3.08;;
24715;SDS011;12822;50.124;8.678;2023-09-08T13:14:37;5.63;;;3.17;;
24715;SDS011;12822;50.124;8.678;2023-09-08T13:17:03;6.60;;;2.88;;
24715;SDS011;12822;50.124;8.678;2023-09-08T13:19:29;9.15;;;3.40;;
24715;SDS011;12822;50.124;8.678;2023-09-08T13:21:55;6.60;;;3.22;;
24715;SDS011;12822;50.124;8.678;2023-09-08T13:24:21;3.38;;;2.50;;
24715;SDS011;12822;50.124;8.678;2023-09-08T13:26:48;4.85;;;2.70;;
24715;SDS011;12822;50.124;8.678;2023-09-08T13:29:14;7.07;;;2.80;;
24715;SDS011;12822;50.124;8.678;2023-09-08T13:31:40;5.57;;;2.92;;
24715;SDS011;12822;50.124;8.678;2023-09-08T13:34:06;6.57;;;3.05;;
24715;SDS011;12822;50.124;8.678;2023-09-08T13:36:32;3.88;;;3.08;;
24715;SDS011;12822;50.124;8.678;2023-09-08T13:38:58;5.65;;;2.90;;
24715;SDS011;12822;50.124;8.678;2023-09-08T13:41:25;7.68;;;3.15;;
24715;SDS011;12822;50.124;8.678;2023-09-08T13:43:51;4.05;;;2.90;;
24715;SDS011;12822;50.124;8.678;2023-09-08T13:46:18;6.53;;;3.35;;
24715;SDS011;12822;50.124;8.678;2023-09-08T13:48:44;5.93;;;2.97;;
24715;SDS011;12822;50.124;8.678;2023-09-08T13:51:10;7.28;;;3.05;;
24715;SDS011;12822;50.124;8.678;2023-09-08T13:53:36;8.02;;;3.10;;
24715;SDS011;12822;50.124;8.678;2023-09-08T13:56:03;4.43;;;3.08;;
24715;SDS011;12822;50.124;8.678;2023-09-08T13:58:30;3.58;;;3.03;;
24715;SDS011;12822;50.124;8.678;2023-09-08T14:00:56;4.65;;;2.92;;
24715;SDS011;12822;50.124;8.678;2023-09-08T14:03:22;4.55;;;3.05;;
24715;SDS011;12822;50.124;8.678;2023-09-08T14:05:49;4.20;;;2.70;;
24715;SDS011;12822;50.124;8.678;2023-09-08T14:08:15;5.32;;;2.88;;
24715;SDS011;12822;50.124;8.678;2023-09-08T14:10:41;4.78;;;3.08;;
24715;SDS011;12822;50.124;8.678;2023-09-08T14:13:09;5.63;;;2.67;;
24715;SDS011;12822;50.124;8.678;2023-09-08T14:15:35;9.15;;;3.08;;
24715;SDS011;12822;50.124;8.678;2023-09-08T14:18:02;4.60;;;3.13;;
24715;SDS011;12822;50.124;8.678;2023-09-08T14:20:28;4.43;;;2.80;;
24715;SDS011;12822;50.124;8.678;2023-09-08T14:22:54;3.88;;;3.20;;
24715;SDS011;12822;50.124;8.678;2023-09-08T14:25:20;7.82;;;3.10;;
24715;SDS011;12822;50.124;8.678;2023-09-08T14:27:46;9.23;;;3.35;;
24715;SDS011;12822;50.124;8.678;2023-09-08T14:30:12;4.45;;;3.15;;
24715;SDS011;12822;50.124;8.678;2023-09-08T14:32:38;5.95;;;3.35;;
24715;SDS011;12822;50.124;8.678;2023-09-08T14:35:04;4.10;;;3.13;;
24715;SDS011;12822;50.124;8.678;2023-09-08T14:37:30;5.65;;;3.30;;
24715;SDS011;12822;50.124;8.678;2023-09-08T14:39:56;3.83;;;3.28;;
24715;SDS011;12822;50.124;8.678;2023-09-08T14:42:22;5.82;;;3.35;;
24715;SDS011;12822;50.124;8.678;2023-09-08T14:44:49;7.85;;;3.08;;
24715;SDS011;12822;50.124;8.678;2023-09-08T14:47:16;8.95;;;3.10;;
24715;SDS011;12822;50.124;8.678;2023-09-08T14:49:45;6.13;;;3.03;;
24715;SDS011;12822;50.124;8.678;2023-09-08T14:52:11;5.22;;;3.33;;
24715;SDS011;12822;50.124;8.678;2023-09-08T14:54:37;7.22;;;3.05;;